sensor_id;sensor_type;location;lat;lon;timestamp;temperature;humidity
2212;DHT22;48849;48.758;9.158;2022-11-15T00:01:54;11.40;99.90
2212;DHT22;48849;48.758;9.158;2022-11-15T00:04:21;11.40;99.90
2212;DHT22;48849;48.758;9.158;2022-11-15T00:06:48;11.50;99.90
2212;DHT22;48849;48.758;9.158;2022-11-15T00:09:16;11.50;99.90
2212;DHT22;48849;48.758;9.158;2022-11-15T00:11:42;12.80;99.90
2212;DHT22;48849;48.758;9.158;2022-11-15T00:14:09;13.10;99.90
2212;DHT22;48849;48.758;9.158;2022-11-15T00:16:36;11.60;99.90
2212;DHT22;48849;48.758;9.158;2022-11-15T00:19:03;11.60;99.90
2212;DHT22;48849;48.758;9.158;2022-11-15T00:21:29;11.60;99.90
2212;DHT22;48849;48.758;9.158;2022-11-15T00:23:56;11.60;99.90
2212;DHT22;48849;48.758;9.158;2022-11-15T00:26:24;11.60;99.90
2212;DHT22;48849;48.758;9.158;2022-11-15T00:28:52;12.90;99.90
2212;DHT22;48849;48.758;9.158;2022-11-15T00:31:19;12.60;99.90
2212;DHT22;48849;48.758;9.158;2022-11-15T00:33:46;11.60;99.90
2212;DHT22;48849;48.758;9.158;2022-11-15T00:36:12;11.90;99.90
2212;DHT22;48849;48.758;9.158;2022-11-15T00:38:40;12.50;99.90
2212;DHT22;48849;48.758;9.158;2022-11-15T00:41:07;11.50;99.90
2212;DHT22;48849;48.758;9.158;2022-11-15T00:43:35;11.50;99.90
2212;DHT22;48849;48.758;9.158;2022-11-15T00:46:02;11.50;99.90
2212;DHT22;48849;48.758;9.158;2022-11-15T00:48:29;11.50;99.90
2212;DHT22;48849;48.758;9.158;2022-11-15T00:50:57;11.50;99.90
2212;DHT22;48849;48.758;9.158;2022-11-15T00:53:23;11.50;99.90
2212;DHT22;48849;48.758;9.158;2022-11-15T00:55:50;11.50;99.90
2212;DHT22;48849;48.758;9.158;2022-11-15T00:58:17;12.00;99.90
2212;DHT22;48849;48.758;9.158;2022-11-15T01:00:45;11.50;99.90
2212;DHT22;48849;48.758;9.158;2022-11-15T01:03:12;11.60;99.90
2212;DHT22;48849;48.758;9.158;2022-11-15T01:05:40;12.20;99.90
2212;DHT22;48849;48.758;9.158;2022-11-15T01:08:12;11.50;99.90
2212;DHT22;48849;48.758;9.158;2022-11-15T01:10:39;11.50;99.90
2212;DHT22;48849;48.758;9.158;2022-11-15T01:13:06;11.50;99.90
2212;DHT22;48849;48.758;9.158;2022-11-15T01:15:33;11.50;99.90
2212;DHT22;48849;48.758;9.158;2022-11-15T01:18:01;11.50;99.90
2212;DHT22;48849;48.758;9.158;2022-11-15T01:20:27;11.50;99.90
2212;DHT22;48849;48.758;9.158;2022-11-15T01:22:54;12.30;99.90
2212;DHT22;48849;48.758;9.158;2022-11-15T01:25:21;13.20;99.90
2212;DHT22;48849;48.758;9.158;2022-11-15T01:27:48;12.70;99.90
2212;DHT22;48849;48.758;9.158;2022-11-15T01:30:15;11.60;99.90
2212;DHT22;48849;48.758;9.158;2022-11-15T01:32:41;11.60;99.90
2212;DHT22;48849;48.758;9.158;2022-11-15T01:35:09;11.60;99.90
2212;DHT22;48849;48.758;9.158;2022-11-15T01:37:36;12.60;99.90
2212;DHT22;48849;48.758;9.158;2022-11-15T01:40:03;11.50;99.90
2212;DHT22;48849;48.758;9.158;2022-11-15T01:42:30;11.40;99.90
2212;DHT22;48849;48.758;9.158;2022-11-15T01:44:57;11.40;99.90
2212;DHT22;48849;48.758;9.158;2022-11-15T01:47:26;11.40;99.90
2212;DHT22;48849;48.758;9.158;2022-11-15T01:49:56;11.40;99.90
2212;DHT22;48849;48.758;9.158;2022-11-15T01:52:28;11.30;99.90
2212;DHT22;48849;48.758;9.158;2022-11-15T01:55:02;11.30;99.90
2212;DHT22;48849;48.758;9.158;2022-11-15T01:57:30;11.90;99.90
2212;DHT22;48849;48.758;9.158;2022-11-15T01:59:57;12.10;99.90
2212;DHT22;48849;48.758;9.158;2022-11-15T02:02:26;11.70;99.90
2212;DHT22;48849;48.758;9.158;2022-11-15T02:04:53;11.70;99.90
2212;DHT22;48849;48.758;9.158;2022-11-15T02:07:20;11.20;99.90
2212;DHT22;48849;48.758;9.158;2022-11-15T02:09:49;11.20;99.90
2212;DHT22;48849;48.758;9.158;2022-11-15T02:12:19;11.80;99.90
2212;DHT22;48849;48.758;9.158;2022-11-15T02:14:48;11.70;99.90
2212;DHT22;48849;48.758;9.158;2022-11-15T02:17:27;11.10;99.90
2212;DHT22;48849;48.758;9.158;2022-11-15T02:20:14;11.10;99.90
2212;DHT22;48849;48.758;9.158;2022-11-15T02:22:57;11.10;99.90
2212;DHT22;48849;48.758;9.158;2022-11-15T02:25:38;11.90;99.90
2212;DHT22;48849;48.758;9.158;2022-11-15T02:28:39;11.10;99.90
2212;DHT22;48849;48.758;9.158;2022-11-15T02:31:12;11.10;99.90
2212;DHT22;48849;48.758;9.158;2022-11-15T02:33:47;11.00;99.90
2212;DHT22;48849;48.758;9.158;2022-11-15T02:36:22;11.10;99.90
2212;DHT22;48849;48.758;9.158;2022-11-15T02:38:58;11.00;99.90
2212;DHT22;48849;48.758;9.158;2022-11-15T02:41:30;11.00;99.90
2212;DHT22;48849;48.758;9.158;2022-11-15T02:44:02;11.40;99.90
2212;DHT22;48849;48.758;9.158;2022-11-15T02:46:36;12.10;99.90
2212;DHT22;48849;48.758;9.158;2022-11-15T02:49:32;11.20;99.90
2212;DHT22;48849;48.758;9.158;2022-11-15T02:51:59;11.00;99.90
2212;DHT22;48849;48.758;9.158;2022-11-15T02:54:28;11.80;99.90
2212;DHT22;48849;48.758;9.158;2022-11-15T02:56:59;11.00;99.90
2212;DHT22;48849;48.758;9.158;2022-11-15T02:59:51;11.00;99.90
2212;DHT22;48849;48.758;9.158;2022-11-15T03:02:41;11.00;99.90
2212;DHT22;48849;48.758;9.158;2022-11-15T03:05:15;11.00;99.90
2212;DHT22;48849;48.758;9.158;2022-11-15T03:07:51;10.90;99.90
2212;DHT22;48849;48.758;9.158;2022-11-15T03:10:24;10.90;99.90
2212;DHT22;48849;48.758;9.158;2022-11-15T03:12:56;10.90;99.90
2212;DHT22;48849;48.758;9.158;2022-11-15T03:15:27;11.10;99.90
2212;DHT22;48849;48.758;9.158;2022-11-15T03:18:00;10.90;99.90
2212;DHT22;48849;48.758;9.158;2022-11-15T03:20:28;10.90;99.90
2212;DHT22;48849;48.758;9.158;2022-11-15T03:23:02;10.90;99.90
2212;DHT22;48849;48.758;9.158;2022-11-15T03:25:32;10.80;99.90
2212;DHT22;48849;48.758;9.158;2022-11-15T03:28:02;10.80;99.90
2212;DHT22;48849;48.758;9.158;2022-11-15T03:30:32;10.80;99.90
2212;DHT22;48849;48.758;9.158;2022-11-15T03:33:03;10.80;99.90
2212;DHT22;48849;48.758;9.158;2022-11-15T03:35:33;10.80;99.90
2212;DHT22;48849;48.758;9.158;2022-11-15T03:38:06;10.90;99.90
2212;DHT22;48849;48.758;9.158;2022-11-15T03:40:38;10.80;99.90
2212;DHT22;48849;48.758;9.158;2022-11-15T03:43:10;10.70;99.90
2212;DHT22;48849;48.758;9.158;2022-11-15T03:45:43;10.80;99.90
2212;DHT22;48849;48.758;9.158;2022-11-15T03:48:16;10.80;99.90
2212;DHT22;48849;48.758;9.158;2022-11-15T03:50:45;10.80;99.90
2212;DHT22;48849;48.758;9.158;2022-11-15T03:53:13;10.80;99.90
2212;DHT22;48849;48.758;9.158;2022-11-15T03:55:40;10.80;99.90
2212;DHT22;48849;48.758;9.158;2022-11-15T03:58:07;10.80;99.90
2212;DHT22;48849;48.758;9.158;2022-11-15T04:00:33;10.80;99.90
2212;DHT22;48849;48.758;9.158;2022-11-15T04:03:00;10.80;99.90
2212;DHT22;48849;48.758;9.158;2022-11-15T04:05:28;10.80;99.90
2212;DHT22;48849;48.758;9.158;2022-11-15T04:07:55;10.80;99.90
2212;DHT22;48849;48.758;9.158;2022-11-15T04:10:22;10.80;99.90
2212;DHT22;48849;48.758;9.158;2022-11-15T04:12:48;10.90;99.90
2212;DHT22;48849;48.758;9.158;2022-11-15T04:15:17;10.80;99.90
2212;DHT22;48849;48.758;9.158;2022-11-15T04:17:45;10.80;99.90
2212;DHT22;48849;48.758;9.158;2022-11-15T04:20:17;10.80;99.90
2212;DHT22;48849;48.758;9.158;2022-11-15T04:23:05;10.80;99.90
2212;DHT22;48849;48.758;9.158;2022-11-15T04:25:56;10.80;99.90
2212;DHT22;48849;48.758;9.158;2022-11-15T04:28:24;10.90;99.90
2212;DHT22;48849;48.758;9.158;2022-11-15T04:30:51;10.80;99.90
2212;DHT22;48849;48.758;9.158;2022-11-15T04:33:18;10.80;99.90
2212;DHT22;48849;48.758;9.158;2022-11-15T04:35:44;10.80;99.90
2212;DHT22;48849;48.758;9.158;2022-11-15T04:38:33;10.80;99.90
2212;DHT22;48849;48.758;9.158;2022-11-15T04:40:59;10.80;99.90
2212;DHT22;48849;48.758;9.158;2022-11-15T04:43:26;10.80;99.90
2212;DHT22;48849;48.758;9.158;2022-11-15T04:45:53;10.80;99.90
2212;DHT22;48849;48.758;9.158;2022-11-15T04:48:20;10.80;99.90
2212;DHT22;48849;48.758;9.158;2022-11-15T04:50:47;10.90;99.90
2212;DHT22;48849;48.758;9.158;2022-11-15T04:53:14;11.00;99.90
2212;DHT22;48849;48.758;9.158;2022-11-15T04:55:44;11.00;99.90
2212;DHT22;48849;48.758;9.158;2022-11-15T04:58:11;11.00;99.90
2212;DHT22;48849;48.758;9.158;2022-11-15T05:00:38;11.00;99.90
2212;DHT22;48849;48.758;9.158;2022-11-15T05:03:06;11.10;99.90
2212;DHT22;48849;48.758;9.158;2022-11-15T05:05:50;11.10;99.90
2212;DHT22;48849;48.758;9.158;2022-11-15T05:08:17;11.10;99.90
2212;DHT22;48849;48.758;9.158;2022-11-15T05:10:45;11.10;99.90
2212;DHT22;48849;48.758;9.158;2022-11-15T05:13:12;11.10;99.90
2212;DHT22;48849;48.758;9.158;2022-11-15T05:15:38;11.10;99.90
2212;DHT22;48849;48.758;9.158;2022-11-15T05:18:05;11.10;99.90
2212;DHT22;48849;48.758;9.158;2022-11-15T05:20:32;11.10;99.90
2212;DHT22;48849;48.758;9.158;2022-11-15T05:22:59;11.10;99.90
2212;DHT22;48849;48.758;9.158;2022-11-15T05:25:26;11.00;99.90
2212;DHT22;48849;48.758;9.158;2022-11-15T05:27:54;11.00;99.90
2212;DHT22;48849;48.758;9.158;2022-11-15T05:30:21;11.00;99.90
2212;DHT22;48849;48.758;9.158;2022-11-15T05:32:48;11.00;99.90
2212;DHT22;48849;48.758;9.158;2022-11-15T05:35:20;11.00;99.90
2212;DHT22;48849;48.758;9.158;2022-11-15T05:37:48;11.00;99.90
2212;DHT22;48849;48.758;9.158;2022-11-15T05:40:15;11.10;99.90
2212;DHT22;48849;48.758;9.158;2022-11-15T05:42:42;11.00;99.90
2212;DHT22;48849;48.758;9.158;2022-11-15T05:45:11;11.00;99.90
2212;DHT22;48849;48.758;9.158;2022-11-15T05:47:39;11.00;99.90
2212;DHT22;48849;48.758;9.158;2022-11-15T05:50:07;11.00;99.90
2212;DHT22;48849;48.758;9.158;2022-11-15T05:52:36;11.00;99.90
2212;DHT22;48849;48.758;9.158;2022-11-15T05:55:05;10.90;99.90
2212;DHT22;48849;48.758;9.158;2022-11-15T05:57:33;10.90;99.90
2212;DHT22;48849;48.758;9.158;2022-11-15T06:00:01;10.90;99.90
2212;DHT22;48849;48.758;9.158;2022-11-15T06:02:29;11.00;99.90
2212;DHT22;48849;48.758;9.158;2022-11-15T06:04:56;11.30;99.90
2212;DHT22;48849;48.758;9.158;2022-11-15T06:07:22;11.00;99.90
2212;DHT22;48849;48.758;9.158;2022-11-15T06:09:49;11.00;99.90
2212;DHT22;48849;48.758;9.158;2022-11-15T06:12:16;11.00;99.90
2212;DHT22;48849;48.758;9.158;2022-11-15T06:14:43;11.00;99.90
2212;DHT22;48849;48.758;9.158;2022-11-15T06:17:10;11.10;99.90
2212;DHT22;48849;48.758;9.158;2022-11-15T06:19:38;11.20;99.90
2212;DHT22;48849;48.758;9.158;2022-11-15T06:22:04;11.10;99.90
2212;DHT22;48849;48.758;9.158;2022-11-15T06:24:31;11.10;99.90
2212;DHT22;48849;48.758;9.158;2022-11-15T06:26:58;11.10;99.90
2212;DHT22;48849;48.758;9.158;2022-11-15T06:29:25;11.10;99.90
2212;DHT22;48849;48.758;9.158;2022-11-15T06:31:52;11.00;99.90
2212;DHT22;48849;48.758;9.158;2022-11-15T06:34:19;11.10;99.90
2212;DHT22;48849;48.758;9.158;2022-11-15T06:36:47;11.00;99.90
2212;DHT22;48849;48.758;9.158;2022-11-15T06:39:13;11.10;99.90
2212;DHT22;48849;48.758;9.158;2022-11-15T06:41:40;11.10;99.90
2212;DHT22;48849;48.758;9.158;2022-11-15T06:44:07;11.10;99.90
2212;DHT22;48849;48.758;9.158;2022-11-15T06:46:33;11.10;99.90
2212;DHT22;48849;48.758;9.158;2022-11-15T06:49:00;11.10;99.90
2212;DHT22;48849;48.758;9.158;2022-11-15T06:51:27;11.10;99.90
2212;DHT22;48849;48.758;9.158;2022-11-15T06:53:55;11.10;99.90
2212;DHT22;48849;48.758;9.158;2022-11-15T06:56:22;11.10;99.90
2212;DHT22;48849;48.758;9.158;2022-11-15T06:58:49;11.10;99.90
2212;DHT22;48849;48.758;9.158;2022-11-15T07:01:15;11.10;99.90
2212;DHT22;48849;48.758;9.158;2022-11-15T07:03:42;11.10;99.90
2212;DHT22;48849;48.758;9.158;2022-11-15T07:06:10;11.00;99.90
2212;DHT22;48849;48.758;9.158;2022-11-15T07:08:37;11.00;99.90
2212;DHT22;48849;48.758;9.158;2022-11-15T07:11:06;11.10;99.90
2212;DHT22;48849;48.758;9.158;2022-11-15T07:13:35;11.10;99.90
2212;DHT22;48849;48.758;9.158;2022-11-15T07:16:03;11.10;99.90
2212;DHT22;48849;48.758;9.158;2022-11-15T07:18:30;11.10;99.90
2212;DHT22;48849;48.758;9.158;2022-11-15T07:21:00;11.10;99.90
2212;DHT22;48849;48.758;9.158;2022-11-15T07:23:27;11.10;99.90
2212;DHT22;48849;48.758;9.158;2022-11-15T07:25:56;11.10;99.90
2212;DHT22;48849;48.758;9.158;2022-11-15T07:28:25;11.10;99.90
2212;DHT22;48849;48.758;9.158;2022-11-15T07:30:52;11.20;99.90
2212;DHT22;48849;48.758;9.158;2022-11-15T07:33:18;11.20;99.90
2212;DHT22;48849;48.758;9.158;2022-11-15T07:35:45;11.20;99.90
2212;DHT22;48849;48.758;9.158;2022-11-15T07:38:14;11.20;99.90
2212;DHT22;48849;48.758;9.158;2022-11-15T07:40:41;11.20;99.90
2212;DHT22;48849;48.758;9.158;2022-11-15T07:43:08;11.30;99.90
2212;DHT22;48849;48.758;9.158;2022-11-15T07:45:41;11.30;99.90
2212;DHT22;48849;48.758;9.158;2022-11-15T07:48:09;11.30;99.90
2212;DHT22;48849;48.758;9.158;2022-11-15T07:50:35;11.40;99.90
2212;DHT22;48849;48.758;9.158;2022-11-15T07:53:02;11.40;99.90
2212;DHT22;48849;48.758;9.158;2022-11-15T07:55:29;11.40;99.90
2212;DHT22;48849;48.758;9.158;2022-11-15T07:58:00;11.40;99.90
2212;DHT22;48849;48.758;9.158;2022-11-15T08:00:27;11.50;99.90
2212;DHT22;48849;48.758;9.158;2022-11-15T08:03:02;11.50;99.90
2212;DHT22;48849;48.758;9.158;2022-11-15T08:05:29;11.60;99.90
2212;DHT22;48849;48.758;9.158;2022-11-15T08:07:56;11.60;99.90
2212;DHT22;48849;48.758;9.158;2022-11-15T08:10:23;11.60;99.90
2212;DHT22;48849;48.758;9.158;2022-11-15T08:12:57;11.70;99.90
2212;DHT22;48849;48.758;9.158;2022-11-15T08:15:24;11.70;99.90
2212;DHT22;48849;48.758;9.158;2022-11-15T08:17:53;11.70;99.90
2212;DHT22;48849;48.758;9.158;2022-11-15T08:20:22;11.90;99.90
2212;DHT22;48849;48.758;9.158;2022-11-15T08:22:49;11.70;99.90
2212;DHT22;48849;48.758;9.158;2022-11-15T08:25:16;11.70;99.90
2212;DHT22;48849;48.758;9.158;2022-11-15T08:27:43;11.70;99.90
2212;DHT22;48849;48.758;9.158;2022-11-15T08:30:11;11.80;99.90
2212;DHT22;48849;48.758;9.158;2022-11-15T08:32:39;11.80;99.90
2212;DHT22;48849;48.758;9.158;2022-11-15T08:35:06;11.80;99.90
2212;DHT22;48849;48.758;9.158;2022-11-15T08:37:35;11.80;99.90
2212;DHT22;48849;48.758;9.158;2022-11-15T08:40:02;11.80;99.90
2212;DHT22;48849;48.758;9.158;2022-11-15T08:42:29;11.80;99.90
2212;DHT22;48849;48.758;9.158;2022-11-15T08:44:56;11.80;99.90
2212;DHT22;48849;48.758;9.158;2022-11-15T08:47:23;11.90;99.90
2212;DHT22;48849;48.758;9.158;2022-11-15T08:49:50;11.90;99.90
2212;DHT22;48849;48.758;9.158;2022-11-15T08:52:17;11.90;99.90
2212;DHT22;48849;48.758;9.158;2022-11-15T08:54:45;11.90;99.90
2212;DHT22;48849;48.758;9.158;2022-11-15T08:57:11;11.90;99.90
2212;DHT22;48849;48.758;9.158;2022-11-15T08:59:38;11.90;99.90
2212;DHT22;48849;48.758;9.158;2022-11-15T09:02:05;11.90;99.90
2212;DHT22;48849;48.758;9.158;2022-11-15T09:04:32;13.10;99.90
2212;DHT22;48849;48.758;9.158;2022-11-15T09:06:58;12.00;99.90
2212;DHT22;48849;48.758;9.158;2022-11-15T09:09:25;13.00;99.90
2212;DHT22;48849;48.758;9.158;2022-11-15T09:11:54;12.00;99.90
2212;DHT22;48849;48.758;9.158;2022-11-15T09:14:20;12.00;99.90
2212;DHT22;48849;48.758;9.158;2022-11-15T09:16:47;12.00;99.90
2212;DHT22;48849;48.758;9.158;2022-11-15T09:19:14;12.00;99.90
2212;DHT22;48849;48.758;9.158;2022-11-15T09:21:41;12.10;99.90
2212;DHT22;48849;48.758;9.158;2022-11-15T09:24:07;12.10;99.90
2212;DHT22;48849;48.758;9.158;2022-11-15T09:26:34;12.10;99.90
2212;DHT22;48849;48.758;9.158;2022-11-15T09:29:03;12.40;99.90
2212;DHT22;48849;48.758;9.158;2022-11-15T09:31:30;12.10;99.90
2212;DHT22;48849;48.758;9.158;2022-11-15T09:33:56;12.20;99.90
2212;DHT22;48849;48.758;9.158;2022-11-15T09:36:23;12.20;99.90
2212;DHT22;48849;48.758;9.158;2022-11-15T09:38:50;13.30;99.90
2212;DHT22;48849;48.758;9.158;2022-11-15T09:44:41;12.20;99.90
2212;DHT22;48849;48.758;9.158;2022-11-15T09:47:28;12.40;99.90
2212;DHT22;48849;48.758;9.158;2022-11-15T09:49:59;12.30;99.90
2212;DHT22;48849;48.758;9.158;2022-11-15T09:52:26;12.30;99.90
2212;DHT22;48849;48.758;9.158;2022-11-15T09:54:53;13.20;99.90
2212;DHT22;48849;48.758;9.158;2022-11-15T09:57:29;12.40;99.90
2212;DHT22;48849;48.758;9.158;2022-11-15T10:00:09;13.50;99.90
2212;DHT22;48849;48.758;9.158;2022-11-15T10:02:47;12.40;99.90
2212;DHT22;48849;48.758;9.158;2022-11-15T10:05:20;13.80;99.90
2212;DHT22;48849;48.758;9.158;2022-11-15T10:07:52;12.50;99.90
2212;DHT22;48849;48.758;9.158;2022-11-15T10:10:27;14.00;99.90
2212;DHT22;48849;48.758;9.158;2022-11-15T10:12:56;12.60;99.90
2212;DHT22;48849;48.758;9.158;2022-11-15T10:15:26;13.80;99.90
2212;DHT22;48849;48.758;9.158;2022-11-15T10:18:13;12.50;99.90
2212;DHT22;48849;48.758;9.158;2022-11-15T10:20:48;12.60;99.90
2212;DHT22;48849;48.758;9.158;2022-11-15T10:23:18;13.80;99.90
2212;DHT22;48849;48.758;9.158;2022-11-15T10:25:45;12.60;99.90
2212;DHT22;48849;48.758;9.158;2022-11-15T10:28:21;13.00;99.90
2212;DHT22;48849;48.758;9.158;2022-11-15T10:30:51;12.60;99.90
2212;DHT22;48849;48.758;9.158;2022-11-15T10:33:26;12.70;99.90
2212;DHT22;48849;48.758;9.158;2022-11-15T10:36:16;12.60;99.90
2212;DHT22;48849;48.758;9.158;2022-11-15T10:38:54;12.60;99.90
2212;DHT22;48849;48.758;9.158;2022-11-15T10:41:22;12.60;99.90
2212;DHT22;48849;48.758;9.158;2022-11-15T10:44:09;12.60;99.90
2212;DHT22;48849;48.758;9.158;2022-11-15T10:46:40;12.70;99.90
2212;DHT22;48849;48.758;9.158;2022-11-15T10:49:13;12.70;99.90
2212;DHT22;48849;48.758;9.158;2022-11-15T10:51:43;12.70;99.90
2212;DHT22;48849;48.758;9.158;2022-11-15T10:54:12;12.70;99.90
2212;DHT22;48849;48.758;9.158;2022-11-15T10:56:40;12.70;99.90
2212;DHT22;48849;48.758;9.158;2022-11-15T10:59:15;12.80;99.90
2212;DHT22;48849;48.758;9.158;2022-11-15T11:01:48;13.60;99.90
2212;DHT22;48849;48.758;9.158;2022-11-15T11:04:15;12.80;99.90
2212;DHT22;48849;48.758;9.158;2022-11-15T11:06:49;12.80;99.90
2212;DHT22;48849;48.758;9.158;2022-11-15T11:09:28;12.80;99.90
2212;DHT22;48849;48.758;9.158;2022-11-15T11:11:55;12.80;99.90
2212;DHT22;48849;48.758;9.158;2022-11-15T11:14:23;12.80;99.90
2212;DHT22;48849;48.758;9.158;2022-11-15T11:16:56;12.80;99.90
2212;DHT22;48849;48.758;9.158;2022-11-15T11:19:36;12.80;99.90
2212;DHT22;48849;48.758;9.158;2022-11-15T11:22:12;13.00;99.90
2212;DHT22;48849;48.758;9.158;2022-11-15T11:24:47;13.80;99.90
2212;DHT22;48849;48.758;9.158;2022-11-15T11:27:24;12.80;99.90
2212;DHT22;48849;48.758;9.158;2022-11-15T11:30:03;14.00;99.90
2212;DHT22;48849;48.758;9.158;2022-11-15T11:33:09;12.80;99.90
2212;DHT22;48849;48.758;9.158;2022-11-15T11:35:50;12.80;99.90
2212;DHT22;48849;48.758;9.158;2022-11-15T11:38:34;12.80;99.90
2212;DHT22;48849;48.758;9.158;2022-11-15T11:41:10;12.80;99.90
2212;DHT22;48849;48.758;9.158;2022-11-15T11:43:50;12.90;99.90
2212;DHT22;48849;48.758;9.158;2022-11-15T11:46:36;12.90;99.90
2212;DHT22;48849;48.758;9.158;2022-11-15T11:49:10;12.90;99.90
2212;DHT22;48849;48.758;9.158;2022-11-15T11:51:42;13.20;99.90
2212;DHT22;48849;48.758;9.158;2022-11-15T11:54:14;12.90;99.90
2212;DHT22;48849;48.758;9.158;2022-11-15T11:56:44;13.00;99.90
2212;DHT22;48849;48.758;9.158;2022-11-15T11:59:19;14.80;99.90
2212;DHT22;48849;48.758;9.158;2022-11-15T12:01:47;13.00;99.90
2212;DHT22;48849;48.758;9.158;2022-11-15T12:04:19;13.00;99.90
2212;DHT22;48849;48.758;9.158;2022-11-15T12:06:50;13.10;99.90
2212;DHT22;48849;48.758;9.158;2022-11-15T12:09:22;13.00;99.90
2212;DHT22;48849;48.758;9.158;2022-11-15T12:11:55;14.10;99.90
2212;DHT22;48849;48.758;9.158;2022-11-15T12:14:28;13.70;99.90
2212;DHT22;48849;48.758;9.158;2022-11-15T12:16:57;14.00;99.90
2212;DHT22;48849;48.758;9.158;2022-11-15T12:19:25;13.20;99.90
2212;DHT22;48849;48.758;9.158;2022-11-15T12:21:58;13.30;99.90
2212;DHT22;48849;48.758;9.158;2022-11-15T12:24:29;13.60;99.90
2212;DHT22;48849;48.758;9.158;2022-11-15T12:27:01;13.30;99.90
2212;DHT22;48849;48.758;9.158;2022-11-15T12:29:35;13.20;99.90
2212;DHT22;48849;48.758;9.158;2022-11-15T12:32:03;13.20;99.90
2212;DHT22;48849;48.758;9.158;2022-11-15T12:34:42;13.20;99.90
2212;DHT22;48849;48.758;9.158;2022-11-15T12:37:33;13.20;99.90
2212;DHT22;48849;48.758;9.158;2022-11-15T12:40:15;13.20;99.90
2212;DHT22;48849;48.758;9.158;2022-11-15T12:43:05;13.20;99.90
2212;DHT22;48849;48.758;9.158;2022-11-15T12:45:33;13.20;99.90
2212;DHT22;48849;48.758;9.158;2022-11-15T12:51:03;13.20;99.90
2212;DHT22;48849;48.758;9.158;2022-11-15T12:53:31;13.20;99.90
2212;DHT22;48849;48.758;9.158;2022-11-15T12:56:22;13.20;99.90
2212;DHT22;48849;48.758;9.158;2022-11-15T12:58:52;13.20;99.90
2212;DHT22;48849;48.758;9.158;2022-11-15T13:04:25;13.20;99.90
2212;DHT22;48849;48.758;9.158;2022-11-15T13:06:55;13.10;99.90
2212;DHT22;48849;48.758;9.158;2022-11-15T13:09:50;13.20;99.90
2212;DHT22;48849;48.758;9.158;2022-11-15T13:12:49;13.10;99.90
2212;DHT22;48849;48.758;9.158;2022-11-15T13:15:39;13.10;99.90
2212;DHT22;48849;48.758;9.158;2022-11-15T13:18:33;13.10;99.90
2212;DHT22;48849;48.758;9.158;2022-11-15T13:21:01;13.10;99.90
2212;DHT22;48849;48.758;9.158;2022-11-15T13:23:53;14.90;99.90
2212;DHT22;48849;48.758;9.158;2022-11-15T13:26:21;13.10;99.90
2212;DHT22;48849;48.758;9.158;2022-11-15T13:28:49;15.30;99.90
2212;DHT22;48849;48.758;9.158;2022-11-15T13:31:35;14.60;99.90
2212;DHT22;48849;48.758;9.158;2022-11-15T13:34:16;13.60;99.90
2212;DHT22;48849;48.758;9.158;2022-11-15T13:36:43;13.20;99.90
2212;DHT22;48849;48.758;9.158;2022-11-15T13:39:25;13.20;99.90
2212;DHT22;48849;48.758;9.158;2022-11-15T13:41:53;14.10;99.90
2212;DHT22;48849;48.758;9.158;2022-11-15T13:44:21;13.60;99.90
2212;DHT22;48849;48.758;9.158;2022-11-15T13:46:48;13.20;99.90
2212;DHT22;48849;48.758;9.158;2022-11-15T13:49:15;13.20;99.90
2212;DHT22;48849;48.758;9.158;2022-11-15T13:51:44;13.30;99.90
2212;DHT22;48849;48.758;9.158;2022-11-15T13:54:21;13.30;99.90
2212;DHT22;48849;48.758;9.158;2022-11-15T13:56:53;14.30;99.90
2212;DHT22;48849;48.758;9.158;2022-11-15T13:59:24;13.30;99.90
2212;DHT22;48849;48.758;9.158;2022-11-15T14:01:52;13.70;99.90
2212;DHT22;48849;48.758;9.158;2022-11-15T14:04:21;14.00;99.90
2212;DHT22;48849;48.758;9.158;2022-11-15T14:06:51;13.40;99.90
2212;DHT22;48849;48.758;9.158;2022-11-15T14:09:32;13.40;99.90
2212;DHT22;48849;48.758;9.158;2022-11-15T14:12:00;13.40;99.90
2212;DHT22;48849;48.758;9.158;2022-11-15T14:14:29;14.70;99.90
2212;DHT22;48849;48.758;9.158;2022-11-15T14:16:57;13.30;99.90
2212;DHT22;48849;48.758;9.158;2022-11-15T14:19:36;14.40;99.90
2212;DHT22;48849;48.758;9.158;2022-11-15T14:22:24;13.30;99.90
2212;DHT22;48849;48.758;9.158;2022-11-15T14:25:15;13.40;99.90
2212;DHT22;48849;48.758;9.158;2022-11-15T14:28:07;13.30;99.90
2212;DHT22;48849;48.758;9.158;2022-11-15T14:30:33;13.30;99.90
2212;DHT22;48849;48.758;9.158;2022-11-15T14:32:59;13.80;99.90
2212;DHT22;48849;48.758;9.158;2022-11-15T14:35:26;14.70;99.90
2212;DHT22;48849;48.758;9.158;2022-11-15T14:37:53;15.30;99.90
2212;DHT22;48849;48.758;9.158;2022-11-15T14:40:21;14.00;99.90
2212;DHT22;48849;48.758;9.158;2022-11-15T14:42:49;13.30;99.90
2212;DHT22;48849;48.758;9.158;2022-11-15T14:45:17;13.30;99.90
2212;DHT22;48849;48.758;9.158;2022-11-15T14:47:46;14.10;99.90
2212;DHT22;48849;48.758;9.158;2022-11-15T14:50:14;13.30;99.90
2212;DHT22;48849;48.758;9.158;2022-11-15T14:52:42;13.30;99.90
2212;DHT22;48849;48.758;9.158;2022-11-15T14:55:16;13.30;99.90
2212;DHT22;48849;48.758;9.158;2022-11-15T14:57:43;13.30;99.90
2212;DHT22;48849;48.758;9.158;2022-11-15T15:00:12;13.30;99.90
2212;DHT22;48849;48.758;9.158;2022-11-15T15:02:40;13.30;99.90
2212;DHT22;48849;48.758;9.158;2022-11-15T15:05:16;13.30;99.90
2212;DHT22;48849;48.758;9.158;2022-11-15T15:07:44;13.30;99.90
2212;DHT22;48849;48.758;9.158;2022-11-15T15:10:11;13.30;99.90
2212;DHT22;48849;48.758;9.158;2022-11-15T15:12:39;13.20;99.90
2212;DHT22;48849;48.758;9.158;2022-11-15T15:15:09;13.20;99.90
2212;DHT22;48849;48.758;9.158;2022-11-15T15:17:36;13.20;99.90
2212;DHT22;48849;48.758;9.158;2022-11-15T15:20:03;13.20;99.90
2212;DHT22;48849;48.758;9.158;2022-11-15T15:22:31;13.20;99.90
2212;DHT22;48849;48.758;9.158;2022-11-15T15:24:58;13.20;99.90
2212;DHT22;48849;48.758;9.158;2022-11-15T15:27:25;13.20;99.90
2212;DHT22;48849;48.758;9.158;2022-11-15T15:29:51;13.20;99.90
2212;DHT22;48849;48.758;9.158;2022-11-15T15:32:18;13.20;99.90
2212;DHT22;48849;48.758;9.158;2022-11-15T15:34:45;13.20;99.90
2212;DHT22;48849;48.758;9.158;2022-11-15T15:37:22;13.20;99.90
2212;DHT22;48849;48.758;9.158;2022-11-15T15:39:52;13.30;99.90
2212;DHT22;48849;48.758;9.158;2022-11-15T15:42:19;13.20;99.90
2212;DHT22;48849;48.758;9.158;2022-11-15T15:44:47;13.20;99.90
2212;DHT22;48849;48.758;9.158;2022-11-15T15:47:17;13.20;99.90
2212;DHT22;48849;48.758;9.158;2022-11-15T15:49:45;13.20;99.90
2212;DHT22;48849;48.758;9.158;2022-11-15T15:52:11;13.20;99.90
2212;DHT22;48849;48.758;9.158;2022-11-15T15:54:38;13.20;99.90
2212;DHT22;48849;48.758;9.158;2022-11-15T15:57:08;13.20;99.90
2212;DHT22;48849;48.758;9.158;2022-11-15T15:59:37;13.20;99.90
2212;DHT22;48849;48.758;9.158;2022-11-15T16:02:04;13.20;99.90
2212;DHT22;48849;48.758;9.158;2022-11-15T16:04:31;13.20;99.90
2212;DHT22;48849;48.758;9.158;2022-11-15T16:06:58;13.20;99.90
2212;DHT22;48849;48.758;9.158;2022-11-15T16:09:26;13.30;99.90
2212;DHT22;48849;48.758;9.158;2022-11-15T16:12:08;13.20;99.90
2212;DHT22;48849;48.758;9.158;2022-11-15T16:14:35;13.20;99.90
2212;DHT22;48849;48.758;9.158;2022-11-15T16:17:01;13.20;99.90